Details From YMAV - Avalon
To YAYE - Ayers Rock
Flight Number -
Tags generated
Created
Modified
Stats Distance 1,045 nm / 1,935 km
Max Altitude 34,000 ft / 10,363 m
Waypoints 8
Social Downloads 0
Likes 0
Share VATSIM

Download

Looking for another format? Having issues loading an existing format? Contact us
Advertisement - Login to hide

Notes

Basic altitude profile: - Ascent Rate: 2500ft/min - Ascent Speed: 250kts - Cruise Altitude: 35000ft - Cruise Speed: 420kts - Descent Rate: 1500ft/min - Descent Speed: 250kts Options: - Use NATs: yes - Use PACOTS: yes - Use low airways: yes - Use high airways: yes

Route

YMAV KEPPA Q168 WR T29 AYE YAYE

ID Type Via Altitude Latitude Longitude Leg Dist Tot Dist Heading (true) Name
O YMAV APT - 0 ft / 0 m -38.04084˚ 144.46713˚ - 0 nm - Avalon
KEPPA FIX - 26,900 ft / 8,199 m -36.79667˚ 143.97583˚ 78 nm 78 nm 342° / 343° -
KABEK FIX Q168 (AWY-HI) 34,000 ft / 10,363 m -33.38861˚ 139.41111˚ 303 nm 381 nm 311° / 314° -
WR NDB Q168 (AWY-HI) 34,000 ft / 10,363 m -31.14333˚ 136.80833˚ 188 nm 570 nm 315° / 316° WOOMERA NDB
VIRUV FIX T29 (AWY-HI) 34,000 ft / 10,363 m -28.95194˚ 134.55750˚ 176 nm 746 nm 318° / 319° -
ARENI FIX T29 (AWY-HI) 28,500 ft / 8,687 m -26.93056˚ 132.59917˚ 159 nm 906 nm 319° / 320° -
AYE NDB T29 (AWY-LO) 18,000 ft / 5,486 m -25.17278˚ 130.97472˚ 137 nm 1043 nm 320° / 321° AYERS ROCK NDB-DME
O YAYE APT - 0 ft / 0 m -25.18556˚ 130.97664˚ 0 nm 1044 nm 172° / 172° Ayers Rock

Altitude Profile

Advertisement - Login to hide

Weather


0- 5 10 15 20 25 30 35+ Temperature / ° C

Clouds and Precipitation
Forecast for 2017-12-12 12:00 UTC. Updated 29 minutes ago

Ground ~20,000 ft ~40,000 ft Winds

YMAV

Details ICAO YMAV (AVV)
Name Avalon
Region Australia
Timezone Australia/Melbourne (UTC+11.0)
Stats Elevation 35 ft / 11 m (AMSL)
Location -38.040844° 144.467132°
Runways 1
Magnetic Variation 11.473° E

METAR

YMAV 121130Z AUTO 00000KT 9999 // NCD 16/13 Q1014 RF00.0/000.0

Decode

TAF

TAF YMAV 120524Z 1206/1306 17014KT CAVOK BECMG 1210/1212 VRB05KT 9999 FEW008 FM122100 03008KT CAVOK FM130000 35015G25KT CAVOK

Decode

Departure Runways

ID Width Length Bearing (true) Bearing (mag) Surface Threshold Offset Overrun Length
18 148 ft / 45 m 10,010 ft / 3,051 m 187.50° 176.03° Asphalt 0 ft / 0 m 797 ft / 243 m
36 148 ft / 45 m 10,010 ft / 3,051 m 7.50° 356.03° Asphalt 0 ft / 0 m 1,010 ft / 308 m

YAYE

Details ICAO YAYE (AYQ)
Name Ayers Rock
Region Australia
Timezone Australia/Darwin (UTC+9.5)
Stats Elevation 1,625 ft / 495 m (AMSL)
Location -25.185555° 130.976642°
Runways 1
Magnetic Variation 3.931° E

METAR

YAYE 121100Z AUTO 21007KT 9999 // NCD 33/05 Q1010

Decode

TAF

Not found

Destination Runways

ID Width Length Bearing (true) Bearing (mag) Surface Threshold Offset Overrun Length
13 98 ft / 30 m 8,526 ft / 2,599 m 129.70° 125.77° Asphalt 0 ft / 0 m 0 ft / 0 m
31 98 ft / 30 m 8,526 ft / 2,599 m 309.70° 305.77° Asphalt 0 ft / 0 m 0 ft / 0 m